sensor_id;sensor_type;location;lat;lon;timestamp;P1;durP1;ratioP1;P2;durP2;ratioP2
74229;SDS011;62589;12.568;99.958;2023-04-03T00:07:07;25.65;;;21.10;;
74229;SDS011;62589;12.568;99.958;2023-04-03T00:09:34;25.98;;;21.40;;
74229;SDS011;62589;12.568;99.958;2023-04-03T00:12:01;30.17;;;21.75;;
74229;SDS011;62589;12.568;99.958;2023-04-03T00:14:27;28.23;;;20.25;;
74229;SDS011;62589;12.568;99.958;2023-04-03T00:16:54;28.23;;;22.00;;
74229;SDS011;62589;12.568;99.958;2023-04-03T00:19:20;23.80;;;20.83;;
74229;SDS011;62589;12.568;99.958;2023-04-03T00:21:47;26.13;;;21.30;;
74229;SDS011;62589;12.568;99.958;2023-04-03T00:24:13;28.20;;;22.60;;
74229;SDS011;62589;12.568;99.958;2023-04-03T00:26:40;27.85;;;21.13;;
74229;SDS011;62589;12.568;99.958;2023-04-03T00:29:06;28.85;;;20.83;;
74229;SDS011;62589;12.568;99.958;2023-04-03T00:31:32;26.80;;;21.42;;
74229;SDS011;62589;12.568;99.958;2023-04-03T00:33:59;27.05;;;21.33;;
74229;SDS011;62589;12.568;99.958;2023-04-03T00:36:25;26.30;;;20.08;;
74229;SDS011;62589;12.568;99.958;2023-04-03T00:38:52;26.75;;;20.98;;
74229;SDS011;62589;12.568;99.958;2023-04-03T00:41:18;25.52;;;20.40;;
74229;SDS011;62589;12.568;99.958;2023-04-03T00:43:45;26.70;;;20.17;;
74229;SDS011;62589;12.568;99.958;2023-04-03T00:46:11;24.52;;;21.35;;
74229;SDS011;62589;12.568;99.958;2023-04-03T00:51:13;27.77;;;21.08;;
74229;SDS011;62589;12.568;99.958;2023-04-03T00:53:46;25.67;;;20.73;;
74229;SDS011;62589;12.568;99.958;2023-04-03T00:56:25;27.73;;;21.42;;
74229;SDS011;62589;12.568;99.958;2023-04-03T00:58:56;25.45;;;21.40;;
74229;SDS011;62589;12.568;99.958;2023-04-03T01:01:30;28.65;;;21.77;;
74229;SDS011;62589;12.568;99.958;2023-04-03T01:04:00;27.17;;;22.83;;
74229;SDS011;62589;12.568;99.958;2023-04-03T01:06:29;30.10;;;21.58;;
74229;SDS011;62589;12.568;99.958;2023-04-03T01:09:00;28.13;;;22.67;;
74229;SDS011;62589;12.568;99.958;2023-04-03T01:11:27;29.83;;;22.75;;
74229;SDS011;62589;12.568;99.958;2023-04-03T01:13:54;25.80;;;21.77;;
74229;SDS011;62589;12.568;99.958;2023-04-03T01:16:20;30.38;;;21.35;;
74229;SDS011;62589;12.568;99.958;2023-04-03T01:18:47;25.67;;;21.15;;
74229;SDS011;62589;12.568;99.958;2023-04-03T01:24:35;28.63;;;21.33;;
74229;SDS011;62589;12.568;99.958;2023-04-03T01:27:05;28.42;;;20.52;;
74229;SDS011;62589;12.568;99.958;2023-04-03T01:29:34;25.88;;;20.38;;
74229;SDS011;62589;12.568;99.958;2023-04-03T01:32:02;26.77;;;20.27;;
74229;SDS011;62589;12.568;99.958;2023-04-03T01:34:29;24.85;;;19.95;;
74229;SDS011;62589;12.568;99.958;2023-04-03T01:36:57;25.13;;;19.27;;
74229;SDS011;62589;12.568;99.958;2023-04-03T01:39:24;25.98;;;19.75;;
74229;SDS011;62589;12.568;99.958;2023-04-03T01:41:50;26.52;;;20.70;;
74229;SDS011;62589;12.568;99.958;2023-04-03T01:44:17;23.40;;;19.83;;
74229;SDS011;62589;12.568;99.958;2023-04-03T01:46:44;27.25;;;19.98;;
74229;SDS011;62589;12.568;99.958;2023-04-03T01:49:11;24.00;;;20.25;;
74229;SDS011;62589;12.568;99.958;2023-04-03T01:51:38;26.73;;;19.88;;
74229;SDS011;62589;12.568;99.958;2023-04-03T01:54:04;29.48;;;21.17;;
74229;SDS011;62589;12.568;99.958;2023-04-03T01:56:31;24.02;;;20.05;;
74229;SDS011;62589;12.568;99.958;2023-04-03T01:58:57;24.55;;;20.17;;
74229;SDS011;62589;12.568;99.958;2023-04-03T02:01:23;22.05;;;19.27;;
74229;SDS011;62589;12.568;99.958;2023-04-03T02:03:51;23.85;;;19.27;;
74229;SDS011;62589;12.568;99.958;2023-04-03T02:06:17;26.05;;;20.13;;
74229;SDS011;62589;12.568;99.958;2023-04-03T02:08:44;23.33;;;18.65;;
74229;SDS011;62589;12.568;99.958;2023-04-03T02:11:10;24.15;;;18.98;;
74229;SDS011;62589;12.568;99.958;2023-04-03T02:13:36;25.70;;;20.83;;
74229;SDS011;62589;12.568;99.958;2023-04-03T02:16:07;20.52;;;18.33;;
74229;SDS011;62589;12.568;99.958;2023-04-03T02:18:49;27.38;;;19.52;;
74229;SDS011;62589;12.568;99.958;2023-04-03T02:21:16;21.27;;;18.38;;
74229;SDS011;62589;12.568;99.958;2023-04-03T02:23:42;28.17;;;19.13;;
74229;SDS011;62589;12.568;99.958;2023-04-03T02:26:10;25.52;;;19.33;;
74229;SDS011;62589;12.568;99.958;2023-04-03T02:28:38;23.33;;;19.00;;
74229;SDS011;62589;12.568;99.958;2023-04-03T02:31:05;21.35;;;18.60;;
74229;SDS011;62589;12.568;99.958;2023-04-03T02:33:32;23.38;;;18.75;;
74229;SDS011;62589;12.568;99.958;2023-04-03T02:36:01;24.88;;;18.92;;
74229;SDS011;62589;12.568;99.958;2023-04-03T02:38:28;23.73;;;17.95;;
74229;SDS011;62589;12.568;99.958;2023-04-03T02:41:05;21.17;;;17.42;;
74229;SDS011;62589;12.568;99.958;2023-04-03T02:43:34;20.42;;;17.50;;
74229;SDS011;62589;12.568;99.958;2023-04-03T02:46:00;23.10;;;18.90;;
74229;SDS011;62589;12.568;99.958;2023-04-03T02:48:27;22.00;;;17.48;;
74229;SDS011;62589;12.568;99.958;2023-04-03T02:50:54;22.83;;;17.80;;
74229;SDS011;62589;12.568;99.958;2023-04-03T02:53:20;20.38;;;16.17;;
74229;SDS011;62589;12.568;99.958;2023-04-03T02:55:47;21.23;;;17.48;;
74229;SDS011;62589;12.568;99.958;2023-04-03T02:58:13;22.70;;;18.00;;
74229;SDS011;62589;12.568;99.958;2023-04-03T03:00:40;23.73;;;17.80;;
74229;SDS011;62589;12.568;99.958;2023-04-03T03:03:06;23.02;;;17.25;;
74229;SDS011;62589;12.568;99.958;2023-04-03T03:05:33;21.27;;;16.52;;
74229;SDS011;62589;12.568;99.958;2023-04-03T03:07:59;21.35;;;16.38;;
74229;SDS011;62589;12.568;99.958;2023-04-03T03:10:26;18.48;;;15.63;;
74229;SDS011;62589;12.568;99.958;2023-04-03T03:12:52;19.88;;;16.45;;
74229;SDS011;62589;12.568;99.958;2023-04-03T03:15:18;21.05;;;16.35;;
74229;SDS011;62589;12.568;99.958;2023-04-03T03:17:45;17.02;;;14.68;;
74229;SDS011;62589;12.568;99.958;2023-04-03T03:20:12;19.98;;;16.38;;
74229;SDS011;62589;12.568;99.958;2023-04-03T03:22:40;16.98;;;14.45;;
74229;SDS011;62589;12.568;99.958;2023-04-03T03:25:07;18.05;;;15.45;;
74229;SDS011;62589;12.568;99.958;2023-04-03T03:27:34;16.70;;;14.40;;
74229;SDS011;62589;12.568;99.958;2023-04-03T03:30:00;17.02;;;15.23;;
74229;SDS011;62589;12.568;99.958;2023-04-03T03:32:27;18.70;;;14.43;;
74229;SDS011;62589;12.568;99.958;2023-04-03T03:34:53;15.32;;;13.50;;
74229;SDS011;62589;12.568;99.958;2023-04-03T03:37:19;18.83;;;13.50;;
74229;SDS011;62589;12.568;99.958;2023-04-03T03:39:46;18.42;;;13.68;;
74229;SDS011;62589;12.568;99.958;2023-04-03T03:42:12;16.77;;;14.13;;
74229;SDS011;62589;12.568;99.958;2023-04-03T03:44:39;16.80;;;13.57;;
74229;SDS011;62589;12.568;99.958;2023-04-03T03:47:05;17.48;;;12.30;;
74229;SDS011;62589;12.568;99.958;2023-04-03T03:49:32;17.20;;;13.25;;
74229;SDS011;62589;12.568;99.958;2023-04-03T03:51:58;19.45;;;13.13;;
74229;SDS011;62589;12.568;99.958;2023-04-03T03:54:25;16.00;;;12.32;;
74229;SDS011;62589;12.568;99.958;2023-04-03T03:56:51;14.95;;;12.95;;
74229;SDS011;62589;12.568;99.958;2023-04-03T03:59:18;18.98;;;12.85;;
74229;SDS011;62589;12.568;99.958;2023-04-03T04:01:44;19.33;;;13.85;;
74229;SDS011;62589;12.568;99.958;2023-04-03T04:04:11;17.63;;;13.95;;
74229;SDS011;62589;12.568;99.958;2023-04-03T04:06:37;19.05;;;15.68;;
74229;SDS011;62589;12.568;99.958;2023-04-03T04:09:03;21.35;;;16.30;;
74229;SDS011;62589;12.568;99.958;2023-04-03T04:11:30;23.27;;;16.30;;
74229;SDS011;62589;12.568;99.958;2023-04-03T04:13:58;18.23;;;16.23;;
74229;SDS011;62589;12.568;99.958;2023-04-03T04:16:25;19.58;;;16.05;;
74229;SDS011;62589;12.568;99.958;2023-04-03T04:18:51;19.42;;;16.83;;
74229;SDS011;62589;12.568;99.958;2023-04-03T04:21:17;22.92;;;17.05;;
74229;SDS011;62589;12.568;99.958;2023-04-03T04:23:44;28.02;;;17.65;;
74229;SDS011;62589;12.568;99.958;2023-04-03T04:26:10;24.25;;;17.17;;
74229;SDS011;62589;12.568;99.958;2023-04-03T04:28:37;21.00;;;16.65;;
74229;SDS011;62589;12.568;99.958;2023-04-03T04:31:03;21.05;;;16.33;;
74229;SDS011;62589;12.568;99.958;2023-04-03T04:33:30;22.40;;;16.80;;
74229;SDS011;62589;12.568;99.958;2023-04-03T04:35:56;22.73;;;16.77;;
74229;SDS011;62589;12.568;99.958;2023-04-03T04:38:23;22.20;;;17.52;;
74229;SDS011;62589;12.568;99.958;2023-04-03T04:40:49;27.10;;;18.83;;
74229;SDS011;62589;12.568;99.958;2023-04-03T04:43:16;22.58;;;17.17;;
74229;SDS011;62589;12.568;99.958;2023-04-03T04:45:43;21.02;;;17.58;;
74229;SDS011;62589;12.568;99.958;2023-04-03T04:48:09;19.50;;;16.70;;
74229;SDS011;62589;12.568;99.958;2023-04-03T04:50:36;25.88;;;16.48;;
74229;SDS011;62589;12.568;99.958;2023-04-03T04:53:02;22.60;;;16.63;;
74229;SDS011;62589;12.568;99.958;2023-04-03T04:55:29;25.58;;;18.17;;
74229;SDS011;62589;12.568;99.958;2023-04-03T04:57:56;19.85;;;16.52;;
74229;SDS011;62589;12.568;99.958;2023-04-03T05:00:22;22.25;;;16.83;;
74229;SDS011;62589;12.568;99.958;2023-04-03T05:02:49;22.17;;;16.23;;
74229;SDS011;62589;12.568;99.958;2023-04-03T05:05:15;18.65;;;15.38;;
74229;SDS011;62589;12.568;99.958;2023-04-03T05:07:42;20.80;;;15.07;;
74229;SDS011;62589;12.568;99.958;2023-04-03T05:10:08;24.85;;;16.50;;
74229;SDS011;62589;12.568;99.958;2023-04-03T05:12:35;18.75;;;15.77;;
74229;SDS011;62589;12.568;99.958;2023-04-03T05:15:01;21.10;;;16.40;;
74229;SDS011;62589;12.568;99.958;2023-04-03T05:17:28;19.90;;;16.95;;
74229;SDS011;62589;12.568;99.958;2023-04-03T05:19:55;17.10;;;13.85;;
74229;SDS011;62589;12.568;99.958;2023-04-03T05:22:21;18.25;;;14.38;;
74229;SDS011;62589;12.568;99.958;2023-04-03T05:24:47;19.58;;;15.10;;
74229;SDS011;62589;12.568;99.958;2023-04-03T05:27:14;18.02;;;14.60;;
74229;SDS011;62589;12.568;99.958;2023-04-03T05:29:40;20.20;;;15.38;;
74229;SDS011;62589;12.568;99.958;2023-04-03T05:32:09;17.67;;;14.00;;
74229;SDS011;62589;12.568;99.958;2023-04-03T05:34:36;18.00;;;14.60;;
74229;SDS011;62589;12.568;99.958;2023-04-03T05:37:03;19.63;;;14.80;;
74229;SDS011;62589;12.568;99.958;2023-04-03T05:39:30;21.00;;;14.07;;
74229;SDS011;62589;12.568;99.958;2023-04-03T05:41:57;16.73;;;13.70;;
74229;SDS011;62589;12.568;99.958;2023-04-03T05:44:23;19.35;;;14.93;;
74229;SDS011;62589;12.568;99.958;2023-04-03T05:46:50;19.45;;;15.38;;
74229;SDS011;62589;12.568;99.958;2023-04-03T05:49:16;19.15;;;14.55;;
74229;SDS011;62589;12.568;99.958;2023-04-03T05:51:43;17.55;;;14.57;;
74229;SDS011;62589;12.568;99.958;2023-04-03T05:56:56;18.48;;;15.07;;
74229;SDS011;62589;12.568;99.958;2023-04-03T05:59:22;20.05;;;14.93;;
74229;SDS011;62589;12.568;99.958;2023-04-03T06:01:49;20.27;;;14.75;;
74229;SDS011;62589;12.568;99.958;2023-04-03T06:04:16;20.67;;;15.25;;
74229;SDS011;62589;12.568;99.958;2023-04-03T06:06:45;19.75;;;15.35;;
74229;SDS011;62589;12.568;99.958;2023-04-03T06:09:20;22.83;;;16.33;;
74229;SDS011;62589;12.568;99.958;2023-04-03T06:11:49;21.15;;;17.30;;
74229;SDS011;62589;12.568;99.958;2023-04-03T06:14:16;18.63;;;15.85;;
74229;SDS011;62589;12.568;99.958;2023-04-03T06:16:43;20.60;;;16.15;;
74229;SDS011;62589;12.568;99.958;2023-04-03T06:19:10;20.33;;;15.27;;
74229;SDS011;62589;12.568;99.958;2023-04-03T06:21:38;26.00;;;16.15;;
74229;SDS011;62589;12.568;99.958;2023-04-03T06:24:05;20.38;;;16.88;;
74229;SDS011;62589;12.568;99.958;2023-04-03T06:26:32;18.02;;;15.27;;
74229;SDS011;62589;12.568;99.958;2023-04-03T06:29:00;24.98;;;16.85;;
74229;SDS011;62589;12.568;99.958;2023-04-03T06:31:27;20.00;;;16.88;;
74229;SDS011;62589;12.568;99.958;2023-04-03T06:33:54;23.73;;;18.40;;
74229;SDS011;62589;12.568;99.958;2023-04-03T06:36:21;22.95;;;18.70;;
74229;SDS011;62589;12.568;99.958;2023-04-03T06:38:48;25.00;;;19.48;;
74229;SDS011;62589;12.568;99.958;2023-04-03T06:41:15;22.58;;;20.00;;
74229;SDS011;62589;12.568;99.958;2023-04-03T06:43:43;26.35;;;19.60;;
74229;SDS011;62589;12.568;99.958;2023-04-03T06:46:16;25.80;;;20.10;;
74229;SDS011;62589;12.568;99.958;2023-04-03T06:48:45;23.27;;;20.05;;
74229;SDS011;62589;12.568;99.958;2023-04-03T06:51:27;70.22;;;22.00;;
74229;SDS011;62589;12.568;99.958;2023-04-03T06:53:55;28.58;;;20.92;;
74229;SDS011;62589;12.568;99.958;2023-04-03T06:56:23;23.45;;;20.38;;
74229;SDS011;62589;12.568;99.958;2023-04-03T06:58:51;26.90;;;20.65;;
74229;SDS011;62589;12.568;99.958;2023-04-03T07:01:26;23.20;;;20.02;;
74229;SDS011;62589;12.568;99.958;2023-04-03T07:03:55;28.65;;;20.98;;
74229;SDS011;62589;12.568;99.958;2023-04-03T07:06:22;23.50;;;19.70;;
74229;SDS011;62589;12.568;99.958;2023-04-03T07:08:52;27.70;;;19.33;;
74229;SDS011;62589;12.568;99.958;2023-04-03T07:11:19;24.08;;;19.33;;
74229;SDS011;62589;12.568;99.958;2023-04-03T07:13:45;24.10;;;18.65;;
74229;SDS011;62589;12.568;99.958;2023-04-03T07:16:12;24.98;;;20.05;;
74229;SDS011;62589;12.568;99.958;2023-04-03T07:18:38;103.45;;;24.15;;
74229;SDS011;62589;12.568;99.958;2023-04-03T07:21:05;37.30;;;20.02;;
74229;SDS011;62589;12.568;99.958;2023-04-03T07:23:32;24.90;;;19.35;;
74229;SDS011;62589;12.568;99.958;2023-04-03T07:25:58;25.20;;;19.38;;
74229;SDS011;62589;12.568;99.958;2023-04-03T07:28:25;48.05;;;21.55;;
74229;SDS011;62589;12.568;99.958;2023-04-03T07:30:52;23.63;;;19.45;;
74229;SDS011;62589;12.568;99.958;2023-04-03T07:33:26;29.58;;;21.15;;
74229;SDS011;62589;12.568;99.958;2023-04-03T07:35:53;84.60;;;26.17;;
74229;SDS011;62589;12.568;99.958;2023-04-03T07:38:19;25.92;;;20.50;;
74229;SDS011;62589;12.568;99.958;2023-04-03T07:40:47;32.38;;;20.48;;
74229;SDS011;62589;12.568;99.958;2023-04-03T07:43:15;218.88;;;31.20;;
74229;SDS011;62589;12.568;99.958;2023-04-03T07:45:43;41.72;;;22.92;;
74229;SDS011;62589;12.568;99.958;2023-04-03T07:48:11;30.27;;;20.58;;
74229;SDS011;62589;12.568;99.958;2023-04-03T07:50:41;84.13;;;24.05;;
74229;SDS011;62589;12.568;99.958;2023-04-03T07:53:08;48.90;;;23.05;;
74229;SDS011;62589;12.568;99.958;2023-04-03T07:55:35;30.60;;;22.52;;
74229;SDS011;62589;12.568;99.958;2023-04-03T07:58:10;26.65;;;22.33;;
74229;SDS011;62589;12.568;99.958;2023-04-03T08:03:38;29.13;;;21.92;;
74229;SDS011;62589;12.568;99.958;2023-04-03T08:06:06;27.60;;;22.13;;
74229;SDS011;62589;12.568;99.958;2023-04-03T08:08:33;31.90;;;22.58;;
74229;SDS011;62589;12.568;99.958;2023-04-03T08:11:00;26.85;;;22.33;;
74229;SDS011;62589;12.568;99.958;2023-04-03T08:13:28;25.60;;;22.15;;
74229;SDS011;62589;12.568;99.958;2023-04-03T08:15:56;31.45;;;22.95;;
74229;SDS011;62589;12.568;99.958;2023-04-03T08:18:24;27.92;;;22.88;;
74229;SDS011;62589;12.568;99.958;2023-04-03T08:20:52;28.10;;;23.55;;
74229;SDS011;62589;12.568;99.958;2023-04-03T08:23:18;29.75;;;23.27;;
74229;SDS011;62589;12.568;99.958;2023-04-03T08:25:45;44.10;;;23.27;;
74229;SDS011;62589;12.568;99.958;2023-04-03T08:28:12;171.68;;;30.80;;
74229;SDS011;62589;12.568;99.958;2023-04-03T08:30:39;115.90;;;29.38;;
74229;SDS011;62589;12.568;99.958;2023-04-03T08:33:06;509.30;;;55.13;;
74229;SDS011;62589;12.568;99.958;2023-04-03T08:35:33;45.50;;;25.60;;
74229;SDS011;62589;12.568;99.958;2023-04-03T08:38:06;122.75;;;28.52;;
74229;SDS011;62589;12.568;99.958;2023-04-03T08:40:33;51.13;;;24.92;;
74229;SDS011;62589;12.568;99.958;2023-04-03T08:43:03;164.40;;;31.17;;
74229;SDS011;62589;12.568;99.958;2023-04-03T08:45:57;38.40;;;24.10;;
74229;SDS011;62589;12.568;99.958;2023-04-03T08:48:27;37.33;;;24.67;;
74229;SDS011;62589;12.568;99.958;2023-04-03T08:51:00;68.72;;;26.73;;
74229;SDS011;62589;12.568;99.958;2023-04-03T08:53:32;77.55;;;28.92;;
74229;SDS011;62589;12.568;99.958;2023-04-03T08:56:05;276.52;;;34.88;;
74229;SDS011;62589;12.568;99.958;2023-04-03T09:03:53;29.35;;;24.48;;
74229;SDS011;62589;12.568;99.958;2023-04-03T09:06:21;31.42;;;23.75;;
74229;SDS011;62589;12.568;99.958;2023-04-03T09:14:50;29.80;;;24.27;;
74229;SDS011;62589;12.568;99.958;2023-04-03T09:17:35;38.45;;;24.90;;
74229;SDS011;62589;12.568;99.958;2023-04-03T09:20:38;34.35;;;24.10;;
74229;SDS011;62589;12.568;99.958;2023-04-03T09:26:07;31.80;;;22.48;;
74229;SDS011;62589;12.568;99.958;2023-04-03T09:28:51;31.33;;;22.60;;
74229;SDS011;62589;12.568;99.958;2023-04-03T09:31:25;35.80;;;23.38;;
74229;SDS011;62589;12.568;99.958;2023-04-03T09:33:57;26.52;;;21.88;;
74229;SDS011;62589;12.568;99.958;2023-04-03T09:39:23;33.33;;;22.45;;
74229;SDS011;62589;12.568;99.958;2023-04-03T09:42:02;26.55;;;22.30;;
74229;SDS011;62589;12.568;99.958;2023-04-03T09:44:32;33.38;;;23.70;;
74229;SDS011;62589;12.568;99.958;2023-04-03T09:52:46;29.17;;;22.85;;
74229;SDS011;62589;12.568;99.958;2023-04-03T09:55:16;33.30;;;23.95;;
74229;SDS011;62589;12.568;99.958;2023-04-03T09:58:01;28.23;;;24.15;;
74229;SDS011;62589;12.568;99.958;2023-04-03T10:00:53;30.88;;;24.27;;
74229;SDS011;62589;12.568;99.958;2023-04-03T10:03:25;31.27;;;24.23;;
74229;SDS011;62589;12.568;99.958;2023-04-03T10:05:55;30.02;;;24.52;;
74229;SDS011;62589;12.568;99.958;2023-04-03T10:08:41;30.45;;;24.02;;
74229;SDS011;62589;12.568;99.958;2023-04-03T10:11:11;32.95;;;24.00;;
74229;SDS011;62589;12.568;99.958;2023-04-03T10:16:35;26.60;;;22.58;;
74229;SDS011;62589;12.568;99.958;2023-04-03T10:46:02;34.63;;;25.33;;
74229;SDS011;62589;12.568;99.958;2023-04-03T10:54:40;28.65;;;24.08;;
74229;SDS011;62589;12.568;99.958;2023-04-03T10:57:14;28.70;;;24.92;;
74229;SDS011;62589;12.568;99.958;2023-04-03T10:59:50;33.38;;;26.13;;
74229;SDS011;62589;12.568;99.958;2023-04-03T11:02:35;30.42;;;24.98;;
74229;SDS011;62589;12.568;99.958;2023-04-03T11:05:15;33.53;;;25.13;;
74229;SDS011;62589;12.568;99.958;2023-04-03T11:07:49;30.00;;;23.77;;
74229;SDS011;62589;12.568;99.958;2023-04-03T11:10:21;35.17;;;25.83;;
74229;SDS011;62589;12.568;99.958;2023-04-03T11:13:20;32.05;;;25.70;;
74229;SDS011;62589;12.568;99.958;2023-04-03T11:15:53;28.63;;;23.83;;
74229;SDS011;62589;12.568;99.958;2023-04-03T11:21:21;31.73;;;25.40;;
74229;SDS011;62589;12.568;99.958;2023-04-03T11:23:56;32.70;;;25.98;;
74229;SDS011;62589;12.568;99.958;2023-04-03T11:26:27;29.85;;;24.90;;
74229;SDS011;62589;12.568;99.958;2023-04-03T11:28:59;33.30;;;24.95;;
74229;SDS011;62589;12.568;99.958;2023-04-03T11:34:36;32.55;;;24.58;;
74229;SDS011;62589;12.568;99.958;2023-04-03T11:37:21;30.80;;;23.95;;
74229;SDS011;62589;12.568;99.958;2023-04-03T11:43:04;28.55;;;23.08;;
74229;SDS011;62589;12.568;99.958;2023-04-03T11:45:36;32.50;;;23.00;;
74229;SDS011;62589;12.568;99.958;2023-04-03T11:59:59;28.77;;;23.33;;
74229;SDS011;62589;12.568;99.958;2023-04-03T12:02:35;27.48;;;22.80;;
74229;SDS011;62589;12.568;99.958;2023-04-03T12:11:09;29.15;;;23.10;;
74229;SDS011;62589;12.568;99.958;2023-04-03T12:19:30;32.83;;;23.02;;
74229;SDS011;62589;12.568;99.958;2023-04-03T12:22:05;30.63;;;23.48;;
74229;SDS011;62589;12.568;99.958;2023-04-03T12:24:52;26.98;;;22.60;;
74229;SDS011;62589;12.568;99.958;2023-04-03T12:27:26;25.73;;;22.33;;
74229;SDS011;62589;12.568;99.958;2023-04-03T12:35:51;33.40;;;23.13;;
74229;SDS011;62589;12.568;99.958;2023-04-03T12:41:32;27.58;;;22.23;;
74229;SDS011;62589;12.568;99.958;2023-04-03T12:47:21;25.13;;;21.63;;
74229;SDS011;62589;12.568;99.958;2023-04-03T12:49:51;28.05;;;22.50;;
74229;SDS011;62589;12.568;99.958;2023-04-03T12:55:07;31.70;;;22.80;;
74229;SDS011;62589;12.568;99.958;2023-04-03T12:57:40;28.08;;;21.15;;
74229;SDS011;62589;12.568;99.958;2023-04-03T13:02:46;28.83;;;21.60;;
74229;SDS011;62589;12.568;99.958;2023-04-03T13:05:15;23.80;;;20.98;;
74229;SDS011;62589;12.568;99.958;2023-04-03T13:07:44;23.58;;;20.85;;
74229;SDS011;62589;12.568;99.958;2023-04-03T13:10:19;26.88;;;21.58;;
74229;SDS011;62589;12.568;99.958;2023-04-03T13:12:48;24.92;;;20.45;;
74229;SDS011;62589;12.568;99.958;2023-04-03T13:23:45;22.52;;;20.02;;
74229;SDS011;62589;12.568;99.958;2023-04-03T13:26:16;28.70;;;21.05;;
74229;SDS011;62589;12.568;99.958;2023-04-03T13:28:45;29.20;;;20.90;;
74229;SDS011;62589;12.568;99.958;2023-04-03T13:31:18;28.27;;;23.38;;
74229;SDS011;62589;12.568;99.958;2023-04-03T13:33:52;33.58;;;24.55;;
74229;SDS011;62589;12.568;99.958;2023-04-03T13:36:33;35.92;;;26.58;;
74229;SDS011;62589;12.568;99.958;2023-04-03T13:41:57;33.25;;;25.27;;
74229;SDS011;62589;12.568;99.958;2023-04-03T13:44:31;40.05;;;27.45;;
74229;SDS011;62589;12.568;99.958;2023-04-03T13:47:15;35.00;;;25.55;;
74229;SDS011;62589;12.568;99.958;2023-04-03T13:52:50;42.85;;;29.52;;
74229;SDS011;62589;12.568;99.958;2023-04-03T13:55:31;42.35;;;29.10;;
74229;SDS011;62589;12.568;99.958;2023-04-03T14:01:01;42.42;;;28.27;;
74229;SDS011;62589;12.568;99.958;2023-04-03T14:03:55;37.58;;;27.88;;
74229;SDS011;62589;12.568;99.958;2023-04-03T14:06:23;41.60;;;29.83;;
74229;SDS011;62589;12.568;99.958;2023-04-03T14:08:50;50.13;;;33.13;;
74229;SDS011;62589;12.568;99.958;2023-04-03T14:11:20;52.70;;;33.95;;
74229;SDS011;62589;12.568;99.958;2023-04-03T14:13:49;48.42;;;33.55;;
74229;SDS011;62589;12.568;99.958;2023-04-03T14:16:18;48.17;;;33.67;;
74229;SDS011;62589;12.568;99.958;2023-04-03T14:18:48;50.33;;;31.60;;
74229;SDS011;62589;12.568;99.958;2023-04-03T14:21:16;44.58;;;30.77;;
74229;SDS011;62589;12.568;99.958;2023-04-03T14:23:44;41.60;;;28.00;;
74229;SDS011;62589;12.568;99.958;2023-04-03T14:26:12;41.20;;;27.98;;
74229;SDS011;62589;12.568;99.958;2023-04-03T14:28:43;37.33;;;26.60;;
74229;SDS011;62589;12.568;99.958;2023-04-03T14:31:12;35.63;;;25.80;;
74229;SDS011;62589;12.568;99.958;2023-04-03T14:33:40;33.13;;;25.42;;
74229;SDS011;62589;12.568;99.958;2023-04-03T14:36:15;30.58;;;23.42;;
74229;SDS011;62589;12.568;99.958;2023-04-03T14:38:45;32.50;;;24.08;;
74229;SDS011;62589;12.568;99.958;2023-04-03T14:41:13;33.65;;;23.05;;
74229;SDS011;62589;12.568;99.958;2023-04-03T14:43:42;31.20;;;22.40;;
74229;SDS011;62589;12.568;99.958;2023-04-03T14:46:14;32.15;;;23.42;;
74229;SDS011;62589;12.568;99.958;2023-04-03T14:48:44;29.27;;;22.08;;
74229;SDS011;62589;12.568;99.958;2023-04-03T14:51:12;26.33;;;21.17;;
74229;SDS011;62589;12.568;99.958;2023-04-03T14:53:40;29.02;;;22.33;;
74229;SDS011;62589;12.568;99.958;2023-04-03T14:56:16;29.92;;;23.02;;
74229;SDS011;62589;12.568;99.958;2023-04-03T14:58:47;26.30;;;22.25;;
74229;SDS011;62589;12.568;99.958;2023-04-03T15:01:16;27.30;;;20.95;;
74229;SDS011;62589;12.568;99.958;2023-04-03T15:03:43;29.83;;;21.63;;
74229;SDS011;62589;12.568;99.958;2023-04-03T15:06:11;29.20;;;22.75;;
74229;SDS011;62589;12.568;99.958;2023-04-03T15:08:38;32.20;;;23.23;;
74229;SDS011;62589;12.568;99.958;2023-04-03T15:11:07;32.97;;;24.83;;
74229;SDS011;62589;12.568;99.958;2023-04-03T15:13:35;37.15;;;25.75;;
74229;SDS011;62589;12.568;99.958;2023-04-03T15:16:01;31.20;;;24.63;;
74229;SDS011;62589;12.568;99.958;2023-04-03T15:18:30;32.22;;;24.73;;
74229;SDS011;62589;12.568;99.958;2023-04-03T15:21:03;35.90;;;26.25;;
74229;SDS011;62589;12.568;99.958;2023-04-03T15:23:30;32.75;;;25.08;;
74229;SDS011;62589;12.568;99.958;2023-04-03T15:25:57;32.33;;;25.40;;
74229;SDS011;62589;12.568;99.958;2023-04-03T15:28:28;34.88;;;26.95;;
74229;SDS011;62589;12.568;99.958;2023-04-03T15:31:00;39.42;;;29.02;;
74229;SDS011;62589;12.568;99.958;2023-04-03T15:33:28;44.25;;;28.38;;
74229;SDS011;62589;12.568;99.958;2023-04-03T15:35:55;40.33;;;29.77;;
74229;SDS011;62589;12.568;99.958;2023-04-03T15:38:22;45.92;;;29.30;;
74229;SDS011;62589;12.568;99.958;2023-04-03T15:40:48;45.85;;;30.10;;
74229;SDS011;62589;12.568;99.958;2023-04-03T15:43:15;34.05;;;27.30;;
74229;SDS011;62589;12.568;99.958;2023-04-03T15:45:42;38.10;;;28.30;;
74229;SDS011;62589;12.568;99.958;2023-04-03T15:48:10;36.97;;;26.65;;
74229;SDS011;62589;12.568;99.958;2023-04-03T15:50:37;33.85;;;26.08;;
74229;SDS011;62589;12.568;99.958;2023-04-03T15:53:04;35.58;;;26.00;;
74229;SDS011;62589;12.568;99.958;2023-04-03T15:55:33;32.15;;;23.38;;
74229;SDS011;62589;12.568;99.958;2023-04-03T15:58:01;29.23;;;23.20;;
74229;SDS011;62589;12.568;99.958;2023-04-03T16:00:28;30.35;;;22.90;;
74229;SDS011;62589;12.568;99.958;2023-04-03T16:02:58;26.98;;;22.02;;
74229;SDS011;62589;12.568;99.958;2023-04-03T16:05:27;29.45;;;22.42;;
74229;SDS011;62589;12.568;99.958;2023-04-03T16:07:54;26.85;;;22.48;;
74229;SDS011;62589;12.568;99.958;2023-04-03T16:10:20;27.95;;;23.05;;
74229;SDS011;62589;12.568;99.958;2023-04-03T16:12:47;34.55;;;23.33;;
74229;SDS011;62589;12.568;99.958;2023-04-03T16:15:13;28.20;;;22.80;;
74229;SDS011;62589;12.568;99.958;2023-04-03T16:17:40;32.17;;;24.42;;
74229;SDS011;62589;12.568;99.958;2023-04-03T16:20:07;31.95;;;23.77;;
74229;SDS011;62589;12.568;99.958;2023-04-03T16:22:36;30.42;;;23.83;;
74229;SDS011;62589;12.568;99.958;2023-04-03T16:25:03;32.95;;;24.40;;
74229;SDS011;62589;12.568;99.958;2023-04-03T16:27:31;29.50;;;22.88;;
74229;SDS011;62589;12.568;99.958;2023-04-03T16:29:58;28.85;;;22.27;;
74229;SDS011;62589;12.568;99.958;2023-04-03T16:32:25;31.65;;;22.92;;
74229;SDS011;62589;12.568;99.958;2023-04-03T16:34:55;30.55;;;22.17;;
74229;SDS011;62589;12.568;99.958;2023-04-03T16:37:22;27.05;;;22.40;;
74229;SDS011;62589;12.568;99.958;2023-04-03T16:39:48;29.75;;;22.55;;
74229;SDS011;62589;12.568;99.958;2023-04-03T16:42:15;26.95;;;21.35;;
74229;SDS011;62589;12.568;99.958;2023-04-03T16:44:41;30.83;;;23.00;;